Montrose Regional Airport
KMTJ : now visible

Airfield :











YOU CAN JOIN US ON...

 
LOGIN :

Register | Disclaimer

   EN    FR    IT 

 









Legend :    VFR   Marginal VFR   IFR   Intensive IFR   Very Intensive IFR
Visi :
Ceiling :
>= 8 km
>= 3000ft
5 to 8 km
1000 to 3000 ft
1500m to 5 km
500 to 1000 ft
800 to 1500m
200 to 500 ft
< 800m
< 200 ft
Symbols :   Thunderstorms  Fog  Heavy snow  Heavy precipitations  Wind > 20 kt






- Airport Elevation : 5759 ft


KMTJ - Montrose Regional

CURRENT METAR :
  • 232353Z AUTO 35007KT 10SM SCT110 14/M09 A3003 RMK AO2 SLP137 T01391089 10156 20128 56006

EXPIRED METARs :
  • 232253Z AUTO 34010KT 10SM CLR 14/M09 A3003 RMK AO2 SLP138 T01441089
  • 232153Z AUTO 34008KT 310V020 10SM CLR 15/M06 A3003 RMK AO2 SLP137 T01501061

TAF KMTJ
Valid from the 24 at 00:00 until the 25 at 00:00 UTC


232336Z 2400/2424 34010KT P6SM FEW100
FM240300 31010KT P6SM BKN100
FM240700 27005KT P6SM FEW050 OVC120
FM241200 21005KT P6SM BKN120
FM241800 33005KT P6SM SKC



MET'MAP, your aeronautical weather chart ! - Copyright ORBIFLY December 2007 - Disclaimer

ORBIFLY MET'MAP TEAM :

Programming & Development : Alexandra Zaïnal
Concept & Development : Baudouin d'Aumeries
Co-Development & Prog : Marc-Olivier Méhu
Technical & hardware support : Manuel Goepfert

Contact : metmap@orbifly.com




SOURCES & CREDITS :

   NOAA       Earth
Advisory